sensor_id;sensor_type;location;lat;lon;timestamp;P1;durP1;ratioP1;P2;durP2;ratioP2
9997;SDS011;5038;53.064;8.624;2022-12-29T00:01:08;11.07;;;10.27;;
9997;SDS011;5038;53.064;8.624;2022-12-29T00:03:47;11.20;;;10.40;;
9997;SDS011;5038;53.064;8.624;2022-12-29T00:06:27;10.40;;;9.60;;
9997;SDS011;5038;53.064;8.624;2022-12-29T00:08:55;10.30;;;9.60;;
9997;SDS011;5038;53.064;8.624;2022-12-29T00:11:24;11.70;;;10.80;;
9997;SDS011;5038;53.064;8.624;2022-12-29T00:13:54;12.03;;;10.90;;
9997;SDS011;5038;53.064;8.624;2022-12-29T00:16:41;11.40;;;10.60;;
9997;SDS011;5038;53.064;8.624;2022-12-29T00:19:12;11.30;;;10.40;;
9997;SDS011;5038;53.064;8.624;2022-12-29T00:21:54;11.30;;;10.40;;
9997;SDS011;5038;53.064;8.624;2022-12-29T00:24:40;12.07;;;11.17;;
9997;SDS011;5038;53.064;8.624;2022-12-29T00:27:26;12.70;;;11.70;;
9997;SDS011;5038;53.064;8.624;2022-12-29T00:30:14;11.67;;;10.77;;
9997;SDS011;5038;53.064;8.624;2022-12-29T00:33:07;13.87;;;12.87;;
9997;SDS011;5038;53.064;8.624;2022-12-29T00:35:52;13.60;;;12.70;;
9997;SDS011;5038;53.064;8.624;2022-12-29T00:38:23;13.57;;;12.57;;
9997;SDS011;5038;53.064;8.624;2022-12-29T00:41:09;13.90;;;12.90;;
9997;SDS011;5038;53.064;8.624;2022-12-29T00:43:56;15.20;;;14.00;;
9997;SDS011;5038;53.064;8.624;2022-12-29T00:46:40;14.73;;;13.53;;
9997;SDS011;5038;53.064;8.624;2022-12-29T00:49:10;15.90;;;14.60;;
9997;SDS011;5038;53.064;8.624;2022-12-29T00:52:02;16.70;;;15.43;;
9997;SDS011;5038;53.064;8.624;2022-12-29T00:54:33;15.67;;;14.50;;
9997;SDS011;5038;53.064;8.624;2022-12-29T00:57:03;16.67;;;15.47;;
9997;SDS011;5038;53.064;8.624;2022-12-29T00:59:34;16.43;;;15.13;;
9997;SDS011;5038;53.064;8.624;2022-12-29T01:02:02;16.53;;;15.33;;
9997;SDS011;5038;53.064;8.624;2022-12-29T01:04:31;16.87;;;15.37;;
9997;SDS011;5038;53.064;8.624;2022-12-29T01:07:01;14.60;;;13.50;;
9997;SDS011;5038;53.064;8.624;2022-12-29T01:09:30;15.97;;;14.67;;
9997;SDS011;5038;53.064;8.624;2022-12-29T01:12:16;15.13;;;13.90;;
9997;SDS011;5038;53.064;8.624;2022-12-29T01:15:05;14.83;;;13.83;;
9997;SDS011;5038;53.064;8.624;2022-12-29T01:17:35;14.33;;;13.30;;
9997;SDS011;5038;53.064;8.624;2022-12-29T01:20:03;15.37;;;14.17;;
9997;SDS011;5038;53.064;8.624;2022-12-29T01:22:35;14.37;;;13.37;;
9997;SDS011;5038;53.064;8.624;2022-12-29T01:25:04;14.37;;;13.33;;
9997;SDS011;5038;53.064;8.624;2022-12-29T01:27:33;13.40;;;12.40;;
9997;SDS011;5038;53.064;8.624;2022-12-29T01:30:02;12.70;;;11.60;;
9997;SDS011;5038;53.064;8.624;2022-12-29T01:32:31;13.00;;;11.90;;
9997;SDS011;5038;53.064;8.624;2022-12-29T01:34:59;13.03;;;12.03;;
9997;SDS011;5038;53.064;8.624;2022-12-29T01:37:27;12.40;;;11.40;;
9997;SDS011;5038;53.064;8.624;2022-12-29T01:39:57;12.60;;;11.50;;
9997;SDS011;5038;53.064;8.624;2022-12-29T01:42:25;12.40;;;11.43;;
9997;SDS011;5038;53.064;8.624;2022-12-29T01:44:54;11.73;;;10.90;;
9997;SDS011;5038;53.064;8.624;2022-12-29T01:47:26;11.47;;;10.53;;
9997;SDS011;5038;53.064;8.624;2022-12-29T01:50:02;11.77;;;10.87;;
9997;SDS011;5038;53.064;8.624;2022-12-29T01:52:33;11.20;;;10.40;;
9997;SDS011;5038;53.064;8.624;2022-12-29T01:55:05;11.97;;;11.00;;
9997;SDS011;5038;53.064;8.624;2022-12-29T01:57:37;12.77;;;11.60;;
9997;SDS011;5038;53.064;8.624;2022-12-29T02:00:09;11.93;;;10.93;;
9997;SDS011;5038;53.064;8.624;2022-12-29T02:02:39;11.30;;;10.50;;
9997;SDS011;5038;53.064;8.624;2022-12-29T02:05:14;12.10;;;11.20;;
9997;SDS011;5038;53.064;8.624;2022-12-29T02:07:47;11.50;;;10.60;;
9997;SDS011;5038;53.064;8.624;2022-12-29T02:10:19;10.67;;;9.87;;
9997;SDS011;5038;53.064;8.624;2022-12-29T02:12:49;11.77;;;10.87;;
9997;SDS011;5038;53.064;8.624;2022-12-29T02:15:17;11.17;;;10.27;;
9997;SDS011;5038;53.064;8.624;2022-12-29T02:18:00;9.90;;;9.10;;
9997;SDS011;5038;53.064;8.624;2022-12-29T02:20:55;10.27;;;9.37;;
9997;SDS011;5038;53.064;8.624;2022-12-29T02:23:59;11.40;;;10.50;;
9997;SDS011;5038;53.064;8.624;2022-12-29T02:26:56;10.00;;;9.20;;
9997;SDS011;5038;53.064;8.624;2022-12-29T02:29:40;9.10;;;8.40;;
9997;SDS011;5038;53.064;8.624;2022-12-29T02:32:23;10.47;;;9.67;;
9997;SDS011;5038;53.064;8.624;2022-12-29T02:35:05;9.60;;;8.90;;
9997;SDS011;5038;53.064;8.624;2022-12-29T02:37:41;10.40;;;9.60;;
9997;SDS011;5038;53.064;8.624;2022-12-29T02:40:17;9.97;;;9.17;;
9997;SDS011;5038;53.064;8.624;2022-12-29T02:42:51;9.70;;;8.90;;
9997;SDS011;5038;53.064;8.624;2022-12-29T02:45:27;9.83;;;9.13;;
9997;SDS011;5038;53.064;8.624;2022-12-29T02:48:07;10.20;;;9.40;;
9997;SDS011;5038;53.064;8.624;2022-12-29T02:50:38;10.10;;;9.30;;
9997;SDS011;5038;53.064;8.624;2022-12-29T02:53:13;10.70;;;9.90;;
9997;SDS011;5038;53.064;8.624;2022-12-29T02:56:05;10.40;;;9.60;;
9997;SDS011;5038;53.064;8.624;2022-12-29T02:58:32;10.80;;;10.00;;
9997;SDS011;5038;53.064;8.624;2022-12-29T03:01:04;10.27;;;9.47;;
9997;SDS011;5038;53.064;8.624;2022-12-29T03:03:54;10.70;;;9.90;;
9997;SDS011;5038;53.064;8.624;2022-12-29T03:06:35;10.17;;;9.47;;
9997;SDS011;5038;53.064;8.624;2022-12-29T03:09:20;10.70;;;10.00;;
9997;SDS011;5038;53.064;8.624;2022-12-29T03:11:59;10.20;;;9.43;;
9997;SDS011;5038;53.064;8.624;2022-12-29T03:14:41;9.80;;;9.10;;
9997;SDS011;5038;53.064;8.624;2022-12-29T03:17:38;8.80;;;8.00;;
9997;SDS011;5038;53.064;8.624;2022-12-29T03:20:17;9.10;;;8.30;;
9997;SDS011;5038;53.064;8.624;2022-12-29T03:22:53;7.50;;;7.00;;
9997;SDS011;5038;53.064;8.624;2022-12-29T03:25:30;6.50;;;6.00;;
9997;SDS011;5038;53.064;8.624;2022-12-29T03:28:03;6.80;;;6.30;;
9997;SDS011;5038;53.064;8.624;2022-12-29T03:30:40;6.40;;;5.90;;
9997;SDS011;5038;53.064;8.624;2022-12-29T03:33:12;5.73;;;5.23;;
9997;SDS011;5038;53.064;8.624;2022-12-29T03:35:45;4.97;;;4.57;;
9997;SDS011;5038;53.064;8.624;2022-12-29T03:38:16;4.87;;;4.47;;
9997;SDS011;5038;53.064;8.624;2022-12-29T03:40:48;5.00;;;4.50;;
9997;SDS011;5038;53.064;8.624;2022-12-29T03:43:18;4.90;;;4.50;;
9997;SDS011;5038;53.064;8.624;2022-12-29T03:45:47;5.07;;;4.57;;
9997;SDS011;5038;53.064;8.624;2022-12-29T03:48:16;5.50;;;5.00;;
9997;SDS011;5038;53.064;8.624;2022-12-29T03:50:47;5.47;;;4.97;;
9997;SDS011;5038;53.064;8.624;2022-12-29T03:53:16;6.20;;;5.70;;
9997;SDS011;5038;53.064;8.624;2022-12-29T03:55:45;6.27;;;5.77;;
9997;SDS011;5038;53.064;8.624;2022-12-29T03:58:14;5.73;;;5.23;;
9997;SDS011;5038;53.064;8.624;2022-12-29T04:00:57;7.57;;;6.97;;
9997;SDS011;5038;53.064;8.624;2022-12-29T04:03:29;7.20;;;6.50;;
9997;SDS011;5038;53.064;8.624;2022-12-29T04:05:59;6.97;;;6.40;;
9997;SDS011;5038;53.064;8.624;2022-12-29T04:08:34;7.17;;;6.60;;
9997;SDS011;5038;53.064;8.624;2022-12-29T04:11:02;7.90;;;7.20;;
9997;SDS011;5038;53.064;8.624;2022-12-29T04:13:31;7.77;;;7.10;;
9997;SDS011;5038;53.064;8.624;2022-12-29T04:15:59;7.90;;;7.20;;
9997;SDS011;5038;53.064;8.624;2022-12-29T04:18:27;7.80;;;7.20;;
9997;SDS011;5038;53.064;8.624;2022-12-29T04:20:55;9.30;;;8.53;;
9997;SDS011;5038;53.064;8.624;2022-12-29T04:23:34;9.60;;;8.80;;
9997;SDS011;5038;53.064;8.624;2022-12-29T04:26:06;8.90;;;8.20;;
9997;SDS011;5038;53.064;8.624;2022-12-29T04:28:47;9.20;;;8.50;;
9997;SDS011;5038;53.064;8.624;2022-12-29T04:31:26;8.13;;;7.43;;
9997;SDS011;5038;53.064;8.624;2022-12-29T04:33:54;7.93;;;7.23;;
9997;SDS011;5038;53.064;8.624;2022-12-29T04:36:24;8.30;;;7.67;;
9997;SDS011;5038;53.064;8.624;2022-12-29T04:38:57;8.10;;;7.50;;
9997;SDS011;5038;53.064;8.624;2022-12-29T04:41:26;8.13;;;7.53;;
9997;SDS011;5038;53.064;8.624;2022-12-29T04:43:54;7.13;;;6.63;;
9997;SDS011;5038;53.064;8.624;2022-12-29T04:46:55;7.07;;;6.47;;
9997;SDS011;5038;53.064;8.624;2022-12-29T04:49:41;7.97;;;7.33;;
9997;SDS011;5038;53.064;8.624;2022-12-29T04:52:39;7.50;;;6.77;;
9997;SDS011;5038;53.064;8.624;2022-12-29T04:55:10;7.13;;;6.53;;
9997;SDS011;5038;53.064;8.624;2022-12-29T04:57:40;6.47;;;5.97;;
9997;SDS011;5038;53.064;8.624;2022-12-29T05:00:12;6.00;;;5.23;;
9997;SDS011;5038;53.064;8.624;2022-12-29T05:02:41;5.83;;;5.23;;
9997;SDS011;5038;53.064;8.624;2022-12-29T05:05:10;5.93;;;5.30;;
9997;SDS011;5038;53.064;8.624;2022-12-29T05:07:42;6.30;;;5.70;;
9997;SDS011;5038;53.064;8.624;2022-12-29T05:10:12;5.90;;;5.40;;
9997;SDS011;5038;53.064;8.624;2022-12-29T05:12:41;6.00;;;5.03;;
9997;SDS011;5038;53.064;8.624;2022-12-29T05:15:11;6.17;;;5.30;;
9997;SDS011;5038;53.064;8.624;2022-12-29T05:17:41;6.27;;;5.67;;
9997;SDS011;5038;53.064;8.624;2022-12-29T05:20:10;6.63;;;5.90;;
9997;SDS011;5038;53.064;8.624;2022-12-29T05:22:38;5.53;;;5.03;;
9997;SDS011;5038;53.064;8.624;2022-12-29T05:25:07;6.10;;;4.40;;
9997;SDS011;5038;53.064;8.624;2022-12-29T05:28:00;4.23;;;3.83;;
9997;SDS011;5038;53.064;8.624;2022-12-29T05:30:39;4.10;;;3.30;;
9997;SDS011;5038;53.064;8.624;2022-12-29T05:33:07;4.00;;;2.97;;
9997;SDS011;5038;53.064;8.624;2022-12-29T05:35:38;3.53;;;2.73;;
9997;SDS011;5038;53.064;8.624;2022-12-29T05:38:07;4.37;;;2.60;;
9997;SDS011;5038;53.064;8.624;2022-12-29T05:40:36;4.03;;;2.20;;
9997;SDS011;5038;53.064;8.624;2022-12-29T05:43:17;3.73;;;1.93;;
9997;SDS011;5038;53.064;8.624;2022-12-29T05:46:07;3.10;;;2.17;;
9997;SDS011;5038;53.064;8.624;2022-12-29T05:49:05;4.50;;;2.40;;
9997;SDS011;5038;53.064;8.624;2022-12-29T05:51:42;3.40;;;2.47;;
9997;SDS011;5038;53.064;8.624;2022-12-29T05:54:11;4.50;;;3.20;;
9997;SDS011;5038;53.064;8.624;2022-12-29T05:56:41;4.33;;;3.70;;
9997;SDS011;5038;53.064;8.624;2022-12-29T05:59:10;6.00;;;4.50;;
9997;SDS011;5038;53.064;8.624;2022-12-29T06:01:39;6.13;;;5.57;;
9997;SDS011;5038;53.064;8.624;2022-12-29T06:04:07;5.83;;;5.33;;
9997;SDS011;5038;53.064;8.624;2022-12-29T06:06:36;6.50;;;5.87;;
9997;SDS011;5038;53.064;8.624;2022-12-29T06:09:10;6.23;;;5.63;;
9997;SDS011;5038;53.064;8.624;2022-12-29T06:11:38;6.27;;;5.40;;
9997;SDS011;5038;53.064;8.624;2022-12-29T06:14:07;5.60;;;5.00;;
9997;SDS011;5038;53.064;8.624;2022-12-29T06:16:37;5.73;;;5.23;;
9997;SDS011;5038;53.064;8.624;2022-12-29T06:19:10;6.13;;;4.87;;
9997;SDS011;5038;53.064;8.624;2022-12-29T06:21:39;5.57;;;5.00;;
9997;SDS011;5038;53.064;8.624;2022-12-29T06:24:08;5.73;;;4.60;;
9997;SDS011;5038;53.064;8.624;2022-12-29T06:26:37;6.70;;;5.07;;
9997;SDS011;5038;53.064;8.624;2022-12-29T06:29:07;5.50;;;4.90;;
9997;SDS011;5038;53.064;8.624;2022-12-29T06:31:37;5.47;;;4.50;;
9997;SDS011;5038;53.064;8.624;2022-12-29T06:34:06;5.50;;;5.00;;
9997;SDS011;5038;53.064;8.624;2022-12-29T06:36:35;4.73;;;4.17;;
9997;SDS011;5038;53.064;8.624;2022-12-29T06:39:03;7.77;;;5.30;;
9997;SDS011;5038;53.064;8.624;2022-12-29T06:41:33;5.57;;;4.60;;
9997;SDS011;5038;53.064;8.624;2022-12-29T06:44:19;6.40;;;5.20;;
9997;SDS011;5038;53.064;8.624;2022-12-29T06:47:01;5.23;;;4.73;;
9997;SDS011;5038;53.064;8.624;2022-12-29T06:49:29;5.27;;;4.77;;
9997;SDS011;5038;53.064;8.624;2022-12-29T06:51:57;5.50;;;4.10;;
9997;SDS011;5038;53.064;8.624;2022-12-29T06:54:26;6.63;;;4.87;;
9997;SDS011;5038;53.064;8.624;2022-12-29T06:56:55;5.47;;;4.40;;
9997;SDS011;5038;53.064;8.624;2022-12-29T06:59:24;5.30;;;4.20;;
9997;SDS011;5038;53.064;8.624;2022-12-29T07:01:52;3.93;;;3.53;;
9997;SDS011;5038;53.064;8.624;2022-12-29T07:04:22;5.27;;;4.77;;
9997;SDS011;5038;53.064;8.624;2022-12-29T07:06:50;5.20;;;4.70;;
9997;SDS011;5038;53.064;8.624;2022-12-29T07:09:18;5.73;;;4.53;;
9997;SDS011;5038;53.064;8.624;2022-12-29T07:11:46;4.90;;;4.40;;
9997;SDS011;5038;53.064;8.624;2022-12-29T07:14:15;5.63;;;4.00;;
9997;SDS011;5038;53.064;8.624;2022-12-29T07:16:43;5.80;;;4.13;;
9997;SDS011;5038;53.064;8.624;2022-12-29T07:19:11;6.00;;;3.87;;
9997;SDS011;5038;53.064;8.624;2022-12-29T07:21:41;4.53;;;3.90;;
9997;SDS011;5038;53.064;8.624;2022-12-29T07:24:12;5.00;;;3.57;;
9997;SDS011;5038;53.064;8.624;2022-12-29T07:26:40;5.77;;;3.40;;
9997;SDS011;5038;53.064;8.624;2022-12-29T07:29:08;7.03;;;4.07;;
9997;SDS011;5038;53.064;8.624;2022-12-29T07:31:36;4.80;;;2.83;;
9997;SDS011;5038;53.064;8.624;2022-12-29T07:34:05;5.87;;;3.30;;
9997;SDS011;5038;53.064;8.624;2022-12-29T07:36:33;4.80;;;2.77;;
9997;SDS011;5038;53.064;8.624;2022-12-29T07:39:03;4.03;;;2.30;;
9997;SDS011;5038;53.064;8.624;2022-12-29T07:41:35;5.13;;;2.83;;
9997;SDS011;5038;53.064;8.624;2022-12-29T07:44:03;4.97;;;2.27;;
9997;SDS011;5038;53.064;8.624;2022-12-29T07:46:54;4.00;;;2.47;;
9997;SDS011;5038;53.064;8.624;2022-12-29T07:49:24;5.40;;;2.50;;
9997;SDS011;5038;53.064;8.624;2022-12-29T07:51:53;4.77;;;2.43;;
9997;SDS011;5038;53.064;8.624;2022-12-29T07:54:22;6.63;;;2.90;;
9997;SDS011;5038;53.064;8.624;2022-12-29T07:56:51;5.07;;;2.83;;
9997;SDS011;5038;53.064;8.624;2022-12-29T07:59:19;6.57;;;2.20;;
9997;SDS011;5038;53.064;8.624;2022-12-29T08:01:47;4.20;;;1.87;;
9997;SDS011;5038;53.064;8.624;2022-12-29T08:04:15;5.23;;;2.43;;
9997;SDS011;5038;53.064;8.624;2022-12-29T08:06:43;6.33;;;2.20;;
9997;SDS011;5038;53.064;8.624;2022-12-29T08:09:13;4.90;;;2.20;;
9997;SDS011;5038;53.064;8.624;2022-12-29T08:11:49;8.73;;;2.83;;
9997;SDS011;5038;53.064;8.624;2022-12-29T08:14:17;4.83;;;1.80;;
9997;SDS011;5038;53.064;8.624;2022-12-29T08:16:46;8.47;;;2.40;;
9997;SDS011;5038;53.064;8.624;2022-12-29T08:19:14;5.90;;;1.87;;
9997;SDS011;5038;53.064;8.624;2022-12-29T08:21:42;7.73;;;2.60;;
9997;SDS011;5038;53.064;8.624;2022-12-29T08:24:11;8.57;;;2.40;;
9997;SDS011;5038;53.064;8.624;2022-12-29T08:26:40;5.93;;;2.30;;
9997;SDS011;5038;53.064;8.624;2022-12-29T08:29:09;6.53;;;1.80;;
9997;SDS011;5038;53.064;8.624;2022-12-29T08:31:37;6.70;;;2.43;;
9997;SDS011;5038;53.064;8.624;2022-12-29T08:34:06;7.57;;;2.83;;
9997;SDS011;5038;53.064;8.624;2022-12-29T08:36:34;5.10;;;1.93;;
9997;SDS011;5038;53.064;8.624;2022-12-29T08:39:02;4.43;;;1.80;;
9997;SDS011;5038;53.064;8.624;2022-12-29T08:41:30;5.00;;;2.00;;
9997;SDS011;5038;53.064;8.624;2022-12-29T08:43:59;5.83;;;2.30;;
9997;SDS011;5038;53.064;8.624;2022-12-29T08:46:28;6.80;;;2.37;;
9997;SDS011;5038;53.064;8.624;2022-12-29T08:48:56;5.07;;;2.00;;
9997;SDS011;5038;53.064;8.624;2022-12-29T08:51:25;7.07;;;2.37;;
9997;SDS011;5038;53.064;8.624;2022-12-29T08:53:53;5.50;;;2.00;;
9997;SDS011;5038;53.064;8.624;2022-12-29T08:56:21;6.47;;;2.50;;
9997;SDS011;5038;53.064;8.624;2022-12-29T08:58:53;5.77;;;2.10;;
9997;SDS011;5038;53.064;8.624;2022-12-29T09:01:23;8.13;;;2.33;;
9997;SDS011;5038;53.064;8.624;2022-12-29T09:03:53;6.23;;;2.10;;
9997;SDS011;5038;53.064;8.624;2022-12-29T09:06:41;5.97;;;2.30;;
9997;SDS011;5038;53.064;8.624;2022-12-29T09:09:10;6.83;;;2.20;;
9997;SDS011;5038;53.064;8.624;2022-12-29T09:11:39;6.73;;;2.33;;
9997;SDS011;5038;53.064;8.624;2022-12-29T09:14:07;6.53;;;1.97;;
9997;SDS011;5038;53.064;8.624;2022-12-29T09:16:35;4.40;;;2.00;;
9997;SDS011;5038;53.064;8.624;2022-12-29T09:19:05;5.37;;;2.00;;
9997;SDS011;5038;53.064;8.624;2022-12-29T09:21:33;4.40;;;1.90;;
9997;SDS011;5038;53.064;8.624;2022-12-29T09:24:02;7.63;;;2.70;;
9997;SDS011;5038;53.064;8.624;2022-12-29T09:26:30;4.53;;;1.70;;
9997;SDS011;5038;53.064;8.624;2022-12-29T09:28:58;7.30;;;1.90;;
9997;SDS011;5038;53.064;8.624;2022-12-29T09:31:26;5.70;;;2.37;;
9997;SDS011;5038;53.064;8.624;2022-12-29T09:33:55;7.87;;;2.10;;
9997;SDS011;5038;53.064;8.624;2022-12-29T09:36:24;7.13;;;1.90;;
9997;SDS011;5038;53.064;8.624;2022-12-29T09:38:52;4.70;;;1.90;;
9997;SDS011;5038;53.064;8.624;2022-12-29T09:41:24;7.73;;;2.27;;
9997;SDS011;5038;53.064;8.624;2022-12-29T09:43:59;6.60;;;1.70;;
9997;SDS011;5038;53.064;8.624;2022-12-29T09:46:40;4.70;;;2.07;;
9997;SDS011;5038;53.064;8.624;2022-12-29T09:49:15;7.50;;;2.37;;
9997;SDS011;5038;53.064;8.624;2022-12-29T09:51:50;5.23;;;1.83;;
9997;SDS011;5038;53.064;8.624;2022-12-29T09:54:24;5.47;;;2.03;;
9997;SDS011;5038;53.064;8.624;2022-12-29T09:57:08;6.90;;;2.03;;
9997;SDS011;5038;53.064;8.624;2022-12-29T09:59:43;5.13;;;1.97;;
9997;SDS011;5038;53.064;8.624;2022-12-29T10:02:16;5.93;;;1.73;;
9997;SDS011;5038;53.064;8.624;2022-12-29T10:04:54;4.20;;;2.10;;
9997;SDS011;5038;53.064;8.624;2022-12-29T10:07:26;7.03;;;2.17;;
9997;SDS011;5038;53.064;8.624;2022-12-29T10:10:03;5.60;;;1.90;;
9997;SDS011;5038;53.064;8.624;2022-12-29T10:12:48;8.17;;;2.03;;
9997;SDS011;5038;53.064;8.624;2022-12-29T10:15:27;6.90;;;1.77;;
9997;SDS011;5038;53.064;8.624;2022-12-29T10:18:04;6.43;;;2.37;;
9997;SDS011;5038;53.064;8.624;2022-12-29T10:20:47;5.93;;;1.80;;
9997;SDS011;5038;53.064;8.624;2022-12-29T10:23:26;5.60;;;1.70;;
9997;SDS011;5038;53.064;8.624;2022-12-29T10:25:56;4.33;;;1.53;;
9997;SDS011;5038;53.064;8.624;2022-12-29T10:28:30;4.50;;;1.63;;
9997;SDS011;5038;53.064;8.624;2022-12-29T10:31:03;3.63;;;1.33;;
9997;SDS011;5038;53.064;8.624;2022-12-29T10:33:37;5.17;;;2.07;;
9997;SDS011;5038;53.064;8.624;2022-12-29T10:36:10;3.17;;;1.10;;
9997;SDS011;5038;53.064;8.624;2022-12-29T10:38:47;5.50;;;1.20;;
9997;SDS011;5038;53.064;8.624;2022-12-29T10:41:24;2.90;;;1.40;;
9997;SDS011;5038;53.064;8.624;2022-12-29T10:43:58;4.20;;;1.37;;
9997;SDS011;5038;53.064;8.624;2022-12-29T10:46:29;4.97;;;1.60;;
9997;SDS011;5038;53.064;8.624;2022-12-29T10:49:01;4.40;;;1.40;;
9997;SDS011;5038;53.064;8.624;2022-12-29T10:51:30;4.53;;;1.40;;
9997;SDS011;5038;53.064;8.624;2022-12-29T10:54:03;5.93;;;2.03;;
9997;SDS011;5038;53.064;8.624;2022-12-29T10:56:34;3.50;;;1.40;;
9997;SDS011;5038;53.064;8.624;2022-12-29T10:59:10;6.87;;;2.00;;
9997;SDS011;5038;53.064;8.624;2022-12-29T11:01:46;6.13;;;2.23;;
9997;SDS011;5038;53.064;8.624;2022-12-29T11:04:28;4.20;;;1.57;;
9997;SDS011;5038;53.064;8.624;2022-12-29T11:07:08;4.37;;;1.80;;
9997;SDS011;5038;53.064;8.624;2022-12-29T11:09:43;5.00;;;1.80;;
9997;SDS011;5038;53.064;8.624;2022-12-29T11:12:19;7.70;;;4.80;;
9997;SDS011;5038;53.064;8.624;2022-12-29T11:15:00;5.60;;;2.13;;
9997;SDS011;5038;53.064;8.624;2022-12-29T11:17:44;5.33;;;2.00;;
9997;SDS011;5038;53.064;8.624;2022-12-29T11:20:27;7.80;;;2.40;;
9997;SDS011;5038;53.064;8.624;2022-12-29T11:22:59;6.77;;;2.20;;
9997;SDS011;5038;53.064;8.624;2022-12-29T11:25:29;7.80;;;2.10;;
9997;SDS011;5038;53.064;8.624;2022-12-29T11:27:59;10.07;;;2.90;;
9997;SDS011;5038;53.064;8.624;2022-12-29T11:30:31;8.13;;;2.37;;
9997;SDS011;5038;53.064;8.624;2022-12-29T11:33:02;6.53;;;2.43;;
9997;SDS011;5038;53.064;8.624;2022-12-29T11:35:33;5.57;;;1.47;;
9997;SDS011;5038;53.064;8.624;2022-12-29T11:38:06;6.10;;;1.60;;
9997;SDS011;5038;53.064;8.624;2022-12-29T11:40:48;10.33;;;2.40;;
9997;SDS011;5038;53.064;8.624;2022-12-29T11:43:18;8.63;;;2.37;;
9997;SDS011;5038;53.064;8.624;2022-12-29T11:45:51;6.30;;;2.23;;
9997;SDS011;5038;53.064;8.624;2022-12-29T11:48:22;7.60;;;2.20;;
9997;SDS011;5038;53.064;8.624;2022-12-29T11:50:53;6.93;;;2.47;;
9997;SDS011;5038;53.064;8.624;2022-12-29T11:53:24;6.63;;;1.80;;
9997;SDS011;5038;53.064;8.624;2022-12-29T11:55:57;4.83;;;1.70;;
9997;SDS011;5038;53.064;8.624;2022-12-29T11:58:30;6.70;;;1.90;;
9997;SDS011;5038;53.064;8.624;2022-12-29T12:01:00;4.80;;;2.10;;
9997;SDS011;5038;53.064;8.624;2022-12-29T12:03:32;6.13;;;1.83;;
9997;SDS011;5038;53.064;8.624;2022-12-29T12:06:05;5.83;;;1.90;;
9997;SDS011;5038;53.064;8.624;2022-12-29T12:08:43;4.70;;;1.47;;
9997;SDS011;5038;53.064;8.624;2022-12-29T12:11:16;5.40;;;1.47;;
9997;SDS011;5038;53.064;8.624;2022-12-29T12:13:51;6.17;;;2.53;;
9997;SDS011;5038;53.064;8.624;2022-12-29T12:16:32;5.70;;;1.80;;
9997;SDS011;5038;53.064;8.624;2022-12-29T12:19:04;4.80;;;1.67;;
9997;SDS011;5038;53.064;8.624;2022-12-29T12:21:41;5.80;;;1.80;;
9997;SDS011;5038;53.064;8.624;2022-12-29T12:24:31;9.70;;;2.13;;
9997;SDS011;5038;53.064;8.624;2022-12-29T12:27:09;4.53;;;1.63;;
9997;SDS011;5038;53.064;8.624;2022-12-29T12:29:43;5.70;;;2.00;;
9997;SDS011;5038;53.064;8.624;2022-12-29T12:32:19;4.83;;;1.70;;
9997;SDS011;5038;53.064;8.624;2022-12-29T12:34:51;5.27;;;1.70;;
9997;SDS011;5038;53.064;8.624;2022-12-29T12:37:29;5.30;;;2.20;;
9997;SDS011;5038;53.064;8.624;2022-12-29T12:40:24;6.03;;;1.70;;
9997;SDS011;5038;53.064;8.624;2022-12-29T12:43:08;6.10;;;1.73;;
9997;SDS011;5038;53.064;8.624;2022-12-29T12:45:51;4.53;;;1.70;;
9997;SDS011;5038;53.064;8.624;2022-12-29T12:48:43;4.70;;;1.40;;
9997;SDS011;5038;53.064;8.624;2022-12-29T12:51:31;7.90;;;2.57;;
9997;SDS011;5038;53.064;8.624;2022-12-29T12:54:12;5.87;;;2.13;;
9997;SDS011;5038;53.064;8.624;2022-12-29T12:56:56;6.07;;;2.20;;
9997;SDS011;5038;53.064;8.624;2022-12-29T12:59:36;5.83;;;1.70;;
9997;SDS011;5038;53.064;8.624;2022-12-29T13:02:19;6.17;;;1.77;;
9997;SDS011;5038;53.064;8.624;2022-12-29T13:05:12;7.40;;;1.83;;
9997;SDS011;5038;53.064;8.624;2022-12-29T13:07:55;6.33;;;1.80;;
9997;SDS011;5038;53.064;8.624;2022-12-29T13:10:36;6.70;;;2.07;;
9997;SDS011;5038;53.064;8.624;2022-12-29T13:16:24;6.47;;;1.80;;
9997;SDS011;5038;53.064;8.624;2022-12-29T13:19:00;5.90;;;1.90;;
9997;SDS011;5038;53.064;8.624;2022-12-29T13:21:40;6.20;;;1.80;;
9997;SDS011;5038;53.064;8.624;2022-12-29T13:24:28;6.30;;;2.27;;
9997;SDS011;5038;53.064;8.624;2022-12-29T13:27:10;5.40;;;1.80;;
9997;SDS011;5038;53.064;8.624;2022-12-29T13:29:47;5.53;;;2.40;;
9997;SDS011;5038;53.064;8.624;2022-12-29T13:32:32;5.80;;;1.93;;
9997;SDS011;5038;53.064;8.624;2022-12-29T13:35:22;8.70;;;2.80;;
9997;SDS011;5038;53.064;8.624;2022-12-29T13:38:09;5.13;;;1.67;;
9997;SDS011;5038;53.064;8.624;2022-12-29T13:40:41;6.00;;;2.30;;
9997;SDS011;5038;53.064;8.624;2022-12-29T13:43:16;5.93;;;1.93;;
9997;SDS011;5038;53.064;8.624;2022-12-29T13:45:48;9.67;;;2.53;;
9997;SDS011;5038;53.064;8.624;2022-12-29T13:48:25;6.73;;;2.60;;
9997;SDS011;5038;53.064;8.624;2022-12-29T13:51:02;5.13;;;1.90;;
9997;SDS011;5038;53.064;8.624;2022-12-29T13:53:33;5.40;;;1.50;;
9997;SDS011;5038;53.064;8.624;2022-12-29T13:56:11;6.30;;;2.30;;
9997;SDS011;5038;53.064;8.624;2022-12-29T13:58:47;6.17;;;2.07;;
9997;SDS011;5038;53.064;8.624;2022-12-29T14:01:20;3.87;;;1.70;;
9997;SDS011;5038;53.064;8.624;2022-12-29T14:03:57;7.53;;;2.43;;
9997;SDS011;5038;53.064;8.624;2022-12-29T14:06:27;6.30;;;2.00;;
9997;SDS011;5038;53.064;8.624;2022-12-29T14:08:57;7.93;;;2.00;;
9997;SDS011;5038;53.064;8.624;2022-12-29T14:11:29;5.93;;;2.03;;
9997;SDS011;5038;53.064;8.624;2022-12-29T14:14:10;6.40;;;2.27;;
9997;SDS011;5038;53.064;8.624;2022-12-29T14:16:40;6.67;;;2.87;;
9997;SDS011;5038;53.064;8.624;2022-12-29T14:19:12;8.20;;;2.30;;
9997;SDS011;5038;53.064;8.624;2022-12-29T14:21:49;7.73;;;1.90;;
9997;SDS011;5038;53.064;8.624;2022-12-29T14:24:26;5.30;;;2.07;;
9997;SDS011;5038;53.064;8.624;2022-12-29T14:33:14;8.20;;;2.40;;
9997;SDS011;5038;53.064;8.624;2022-12-29T14:35:44;5.07;;;2.00;;
9997;SDS011;5038;53.064;8.624;2022-12-29T14:38:22;7.37;;;2.27;;
9997;SDS011;5038;53.064;8.624;2022-12-29T14:43:54;5.70;;;2.40;;
9997;SDS011;5038;53.064;8.624;2022-12-29T14:46:45;7.73;;;2.10;;
9997;SDS011;5038;53.064;8.624;2022-12-29T14:49:17;8.90;;;2.67;;
9997;SDS011;5038;53.064;8.624;2022-12-29T14:51:49;6.37;;;2.60;;
9997;SDS011;5038;53.064;8.624;2022-12-29T14:54:41;6.00;;;2.60;;
9997;SDS011;5038;53.064;8.624;2022-12-29T14:57:22;6.17;;;2.80;;
9997;SDS011;5038;53.064;8.624;2022-12-29T15:00:06;8.43;;;3.30;;
9997;SDS011;5038;53.064;8.624;2022-12-29T15:02:44;11.38;;;3.80;;
9997;SDS011;5038;53.064;8.624;2022-12-29T15:05:24;8.13;;;3.80;;
9997;SDS011;5038;53.064;8.624;2022-12-29T15:07:58;9.63;;;3.30;;
9997;SDS011;5038;53.064;8.624;2022-12-29T15:10:31;6.53;;;2.80;;
9997;SDS011;5038;53.064;8.624;2022-12-29T15:13:10;8.50;;;3.30;;
9997;SDS011;5038;53.064;8.624;2022-12-29T15:15:42;6.90;;;3.23;;
9997;SDS011;5038;53.064;8.624;2022-12-29T15:18:15;6.93;;;3.40;;
9997;SDS011;5038;53.064;8.624;2022-12-29T15:20:51;9.60;;;3.33;;
9997;SDS011;5038;53.064;8.624;2022-12-29T15:23:24;10.33;;;3.40;;
9997;SDS011;5038;53.064;8.624;2022-12-29T15:25:53;7.07;;;3.40;;
9997;SDS011;5038;53.064;8.624;2022-12-29T15:28:23;7.83;;;3.20;;
9997;SDS011;5038;53.064;8.624;2022-12-29T15:30:53;7.50;;;2.90;;
9997;SDS011;5038;53.064;8.624;2022-12-29T15:33:23;7.03;;;3.87;;
9997;SDS011;5038;53.064;8.624;2022-12-29T15:35:55;10.53;;;3.00;;
9997;SDS011;5038;53.064;8.624;2022-12-29T15:38:27;7.37;;;3.40;;
9997;SDS011;5038;53.064;8.624;2022-12-29T15:41:06;7.90;;;2.97;;
9997;SDS011;5038;53.064;8.624;2022-12-29T15:43:48;7.35;;;3.42;;
9997;SDS011;5038;53.064;8.624;2022-12-29T15:46:23;8.45;;;2.60;;
9997;SDS011;5038;53.064;8.624;2022-12-29T15:48:51;7.90;;;2.77;;
9997;SDS011;5038;53.064;8.624;2022-12-29T15:51:20;9.50;;;3.27;;
9997;SDS011;5038;53.064;8.624;2022-12-29T15:53:54;8.50;;;3.30;;
9997;SDS011;5038;53.064;8.624;2022-12-29T15:56:22;8.03;;;3.43;;
9997;SDS011;5038;53.064;8.624;2022-12-29T15:58:51;10.13;;;2.93;;
9997;SDS011;5038;53.064;8.624;2022-12-29T16:01:23;7.07;;;3.50;;
9997;SDS011;5038;53.064;8.624;2022-12-29T16:03:55;6.60;;;3.00;;
9997;SDS011;5038;53.064;8.624;2022-12-29T16:06:27;6.67;;;3.30;;